Time;durP1;ratioP1;P1;durP2;ratioP2;P2;SDS_P1;SDS_P2;PMS_P1;PMS_P2;Temp;Humidity;BMP_temperature;BMP_pressure;BME280_temperature;BME280_humidity;BME280_pressure;Samples;Min_cycle;Max_cycle;Signal;HPM_P1;HPM_P2
2023/06/21 00:01:43;;;;;;;7.10;6.60;;;;;;;20.20;91.73;101188.38;4996096;28;20054;-80
2023/06/21 00:04:09;;;;;;;8.05;7.35;;;;;;;20.19;91.97;101182.19;4997896;28;20133;-80
2023/06/21 00:06:34;;;;;;;6.85;6.32;;;;;;;20.17;91.85;101180.63;4995275;28;20202;-80
2023/06/21 00:09:03;;;;;;;7.78;7.07;;;;;;;20.15;91.72;101178.06;4995436;28;20065;-80
2023/06/21 00:11:29;;;;;;;7.30;6.57;;;;;;;20.13;91.95;101182.66;4996016;28;20038;-80
2023/06/21 00:13:55;;;;;;;6.53;6.03;;;;;;;20.12;91.93;101179.16;4977767;28;20146;-80
2023/06/21 00:16:21;;;;;;;7.75;7.15;;;;;;;20.10;91.72;101181.09;4978303;28;20050;-80
2023/06/21 00:18:47;;;;;;;9.95;7.93;;;;;;;20.09;91.88;101176.72;4995384;28;20069;-80
2023/06/21 00:21:13;;;;;;;7.47;6.90;;;;;;;20.08;91.75;101180.38;4978545;28;20034;-80
2023/06/21 00:23:39;;;;;;;7.47;6.88;;;;;;;20.06;91.74;101184.94;4977918;28;20045;-80
2023/06/21 00:26:05;;;;;;;9.40;8.60;;;;;;;20.05;91.75;101195.69;4977851;28;20364;-81
2023/06/21 00:28:30;;;;;;;12.95;7.68;;;;;;;20.02;91.78;101207.41;4978108;28;20034;-81
2023/06/21 00:30:56;;;;;;;12.65;10.73;;;;;;;20.00;91.94;101203.16;4995492;28;20038;-81
2023/06/21 00:33:21;;;;;;;8.48;7.68;;;;;;;20.00;91.78;101211.16;5000170;28;20214;-81
2023/06/21 00:35:46;;;;;;;10.88;8.35;;;;;;;19.98;92.13;101208.59;5015087;28;20265;-80
2023/06/21 00:38:12;;;;;;;8.70;8.00;;;;;;;19.99;91.68;101215.59;5015064;28;20045;-80
2023/06/21 00:40:38;;;;;;;9.63;8.13;;;;;;;19.98;91.46;101213.06;5018234;28;20089;-80
2023/06/21 00:43:05;;;;;;;8.75;8.05;;;;;;;19.96;91.45;101218.50;5000650;28;20039;-80
2023/06/21 00:45:38;;;;;;;10.73;9.27;;;;;;;19.96;91.65;101221.16;4990935;28;20037;-80
2023/06/21 00:48:04;;;;;;;8.32;7.53;;;;;;;19.95;91.55;101222.09;4980966;28;20313;-80
2023/06/21 00:50:29;;;;;;;9.30;8.40;;;;;;;19.95;91.35;101235.41;4998672;28;20030;-80
2023/06/21 00:52:55;;;;;;;10.68;9.35;;;;;;;19.95;91.42;101238.06;4998575;28;20042;-80
2023/06/21 00:55:23;;;;;;;8.73;8.02;;;;;;;19.93;91.72;101248.78;4998865;28;20051;-80
2023/06/21 00:57:49;;;;;;;9.75;8.95;;;;;;;19.91;91.58;101248.06;4981097;28;20032;-80
2023/06/21 01:00:21;;;;;;;8.88;7.97;;;;;;;19.91;91.75;101250.72;4981295;28;20034;-80
2023/06/21 01:02:51;;;;;;;9.57;8.63;;;;;;;19.90;91.73;101256.16;4998548;28;20037;-80
2023/06/21 01:05:17;;;;;;;8.93;8.20;;;;;;;19.90;91.65;101251.69;4977899;28;20062;-80
2023/06/21 01:08:27;;;;;;;10.30;9.30;;;;;;;19.88;91.35;101250.97;4997361;28;20049;-80
2023/06/21 01:11:20;;;;;;;13.73;11.60;;;;;;;19.88;91.16;101258.06;4918832;29;20040;-80
2023/06/21 01:14:00;;;;;;;11.35;10.25;;;;;;;19.84;91.35;101259.25;4996537;28;20050;-80
2023/06/21 01:16:39;;;;;;;9.52;8.63;;;;;;;19.82;91.23;101261.19;4998214;28;20053;-80
2023/06/21 01:19:06;;;;;;;8.85;8.10;;;;;;;19.79;91.39;101264.06;4980653;28;20050;-80
2023/06/21 01:21:32;;;;;;;11.10;10.10;;;;;;;19.77;91.47;101264.16;4998338;28;20034;-80
2023/06/21 01:24:06;;;;;;;8.90;8.02;;;;;;;19.78;91.63;101263.22;4998464;28;20032;-80
2023/06/21 01:26:53;;;;;;;7.30;6.80;;;;;;;19.77;91.35;101265.97;4997945;28;20344;-80
2023/06/21 01:29:33;;;;;;;12.10;11.02;;;;;;;19.77;91.56;101258.00;4998149;28;20241;-80
2023/06/21 01:32:00;;;;;;;7.80;7.05;;;;;;;19.77;91.57;101260.66;4997663;28;20110;-80
2023/06/21 01:34:27;;;;;;;8.77;7.97;;;;;;;19.73;91.21;101258.22;5010800;28;20026;-80
2023/06/21 01:36:53;;;;;;;8.82;8.02;;;;;;;19.73;91.50;101260.88;4999484;28;20029;-80
2023/06/21 01:39:19;;;;;;;11.30;10.10;;;;;;;19.72;91.60;101258.34;5017418;28;20093;-80
2023/06/21 01:41:46;;;;;;;9.25;8.43;;;;;;;19.73;91.52;101260.88;5010729;28;20126;-80
2023/06/21 01:44:13;;;;;;;9.52;8.63;;;;;;;19.72;91.41;101256.50;4997673;28;20033;-80
2023/06/21 01:46:39;;;;;;;10.27;9.02;;;;;;;19.70;91.42;101255.78;4998103;28;20501;-80
2023/06/21 01:49:07;;;;;;;12.25;11.07;;;;;;;19.70;91.38;101263.75;4997837;28;20034;-80
2023/06/21 01:51:39;;;;;;;12.17;10.80;;;;;;;19.69;91.70;101275.31;4978831;28;20034;-80
2023/06/21 01:54:05;;;;;;;12.27;10.75;;;;;;;19.69;91.70;101277.16;4979863;28;20089;-80
2023/06/21 01:56:33;;;;;;;10.23;9.23;;;;;;;19.67;91.55;101271.94;4997776;28;20030;-80
2023/06/21 01:58:59;;;;;;;11.82;10.57;;;;;;;19.66;91.72;101277.34;4997224;28;20041;-80
2023/06/21 02:01:27;;;;;;;10.20;9.18;;;;;;;19.64;91.88;101274.81;4997605;28;20028;-80
2023/06/21 02:03:56;;;;;;;10.82;9.77;;;;;;;19.64;91.75;101280.13;4997197;28;20558;-80
2023/06/21 02:06:26;;;;;;;10.55;9.50;;;;;;;19.62;91.79;101284.69;4980008;28;20022;-77
2023/06/21 02:08:52;;;;;;;14.23;12.75;;;;;;;19.63;92.01;101288.19;4998405;28;20038;-77
2023/06/21 02:11:19;;;;;;;11.75;10.45;;;;;;;19.62;91.90;101289.16;4998374;28;20117;-77
2023/06/21 02:13:48;;;;;;;10.32;9.35;;;;;;;19.59;92.23;101292.88;4998734;28;20495;-77
2023/06/21 02:16:17;;;;;;;11.95;10.68;;;;;;;19.58;92.07;101301.00;4998257;28;20038;-77
2023/06/21 02:18:43;;;;;;;11.13;10.13;;;;;;;19.56;92.07;101293.97;4980430;28;20038;-77
2023/06/21 02:21:11;;;;;;;9.98;9.07;;;;;;;19.54;92.08;101293.22;4980243;28;20286;-77
2023/06/21 02:23:37;;;;;;;11.02;9.88;;;;;;;19.53;92.31;101294.16;4997985;28;20030;-77
2023/06/21 02:26:03;;;;;;;9.73;8.90;;;;;;;19.53;92.40;101295.97;4997798;28;20280;-77
2023/06/21 02:28:28;;;;;;;9.75;8.85;;;;;;;19.52;92.27;101287.19;4980265;28;20026;-77
2023/06/21 02:30:54;;;;;;;9.63;8.73;;;;;;;19.51;92.57;101298.75;4997168;28;20113;-77
2023/06/21 02:33:19;;;;;;;12.63;11.32;;;;;;;19.49;92.60;101305.97;5002122;28;20037;-77
2023/06/21 02:35:44;;;;;;;9.80;9.00;;;;;;;19.48;92.29;101308.75;4999700;28;20026;-77
2023/06/21 02:38:10;;;;;;;12.18;10.27;;;;;;;19.48;92.57;101319.38;4999322;28;20036;-77
2023/06/21 02:40:35;;;;;;;12.45;11.25;;;;;;;19.47;92.26;101323.84;5016839;28;20059;-77
2023/06/21 02:43:00;;;;;;;12.63;11.32;;;;;;;19.49;92.38;101324.56;5017118;28;20332;-77
2023/06/21 02:45:26;;;;;;;12.80;11.43;;;;;;;19.50;92.38;101325.41;5016803;28;20046;-77
2023/06/21 02:47:51;;;;;;;11.40;10.40;;;;;;;19.47;92.44;101312.38;5017797;28;20033;-77
2023/06/21 02:50:18;;;;;;;9.77;8.90;;;;;;;19.46;92.15;101319.47;4999913;28;20041;-77
2023/06/21 02:52:44;;;;;;;8.52;7.68;;;;;;;19.44;92.30;101324.03;5017661;28;20103;-77
2023/06/21 02:55:10;;;;;;;7.60;6.97;;;;;;;19.41;92.30;101321.63;5016302;28;20361;-77
2023/06/21 02:57:36;;;;;;;7.60;6.80;;;;;;;19.41;92.05;101331.38;4997902;28;20045;-77
2023/06/21 03:00:04;;;;;;;6.68;6.15;;;;;;;19.41;91.95;101337.56;4986858;28;20064;-77
2023/06/21 03:02:33;;;;;;;9.88;8.10;;;;;;;19.40;92.07;101332.34;4999319;28;20105;-77
2023/06/21 03:05:00;;;;;;;8.57;7.47;;;;;;;19.41;91.72;101331.38;4990866;28;20118;-77
2023/06/21 03:07:28;;;;;;;6.38;5.80;;;;;;;19.37;91.53;101334.25;4997573;28;20077;-77
2023/06/21 03:09:54;;;;;;;6.50;6.03;;;;;;;19.35;91.41;101335.31;4997497;28;20048;-77
2023/06/21 03:12:19;;;;;;;6.00;5.40;;;;;;;19.33;91.85;101338.06;4997895;28;20034;-77
2023/06/21 03:14:45;;;;;;;5.20;4.80;;;;;;;19.32;91.46;101343.50;4997654;28;20057;-77
2023/06/21 03:17:10;;;;;;;5.63;4.10;;;;;;;19.31;91.20;101347.13;4997193;28;20034;-77
2023/06/21 03:19:35;;;;;;;4.68;4.10;;;;;;;19.30;90.79;101356.91;4997267;28;20407;-77
2023/06/21 03:22:02;;;;;;;5.30;4.82;;;;;;;19.27;90.99;101366.88;4997193;28;20089;-77
2023/06/21 03:24:32;;;;;;;4.88;4.35;;;;;;;19.25;90.90;101369.63;4997496;28;20045;-77
2023/06/21 03:26:58;;;;;;;4.18;3.78;;;;;;;19.24;90.83;101367.06;4980113;28;20247;-77
2023/06/21 03:29:25;;;;;;;4.75;3.22;;;;;;;19.22;90.67;101376.97;4997584;28;20041;-77
2023/06/21 03:31:50;;;;;;;4.60;3.10;;;;;;;19.19;90.84;101380.66;4997861;28;20042;-77
2023/06/21 03:34:15;;;;;;;3.50;3.20;;;;;;;19.16;90.64;101381.72;4991423;28;20049;-77
2023/06/21 03:36:41;;;;;;;3.63;3.05;;;;;;;19.14;90.81;101380.16;4998700;28;20045;-77
2023/06/21 03:39:06;;;;;;;3.10;2.80;;;;;;;19.11;90.59;101375.03;5016203;28;20237;-77
2023/06/21 03:41:32;;;;;;;3.10;2.80;;;;;;;19.11;90.82;101375.88;5016218;28;20333;-77
2023/06/21 03:43:58;;;;;;;2.80;2.60;;;;;;;19.08;90.82;101378.75;4990792;28;20034;-77
2023/06/21 03:46:23;;;;;;;2.92;2.63;;;;;;;19.07;90.73;101385.00;4979891;28;20053;-77
2023/06/21 03:48:51;;;;;;;2.67;2.47;;;;;;;19.09;90.97;101395.53;4997136;28;20046;-77
2023/06/21 03:51:17;;;;;;;3.00;2.80;;;;;;;19.06;90.79;101399.22;4997924;28;20068;-77
2023/06/21 03:53:42;;;;;;;3.13;2.75;;;;;;;19.04;90.64;101395.81;4979805;28;20105;-77
2023/06/21 03:56:08;;;;;;;5.50;2.60;;;;;;;19.04;90.60;101409.09;4996091;28;20038;-77
2023/06/21 03:58:33;;;;;;;4.25;2.80;;;;;;;19.02;90.76;101407.50;4996750;28;20045;-77
2023/06/21 04:00:58;;;;;;;3.45;2.47;;;;;;;19.02;90.49;101405.69;4995326;28;20328;-77
2023/06/21 04:03:24;;;;;;;2.30;2.20;;;;;;;18.99;90.56;101403.25;4984460;28;20299;-77
2023/06/21 04:05:49;;;;;;;2.38;2.20;;;;;;;18.96;90.43;101406.97;4999059;28;20050;-77
2023/06/21 04:08:14;;;;;;;2.60;2.40;;;;;;;18.96;90.82;101414.94;5016998;28;20641;-77
2023/06/21 04:10:41;;;;;;;3.03;2.78;;;;;;;18.98;90.81;101414.84;4998855;28;20288;-77
2023/06/21 04:13:07;;;;;;;2.67;2.47;;;;;;;18.99;90.79;101421.81;5016751;28;20045;-77
2023/06/21 04:15:33;;;;;;;2.83;2.35;;;;;;;18.97;90.55;101418.44;5003099;28;20312;-77
2023/06/21 04:17:58;;;;;;;2.42;2.20;;;;;;;18.97;90.50;101416.66;5014239;28;20336;-77
2023/06/21 04:20:24;;;;;;;2.65;2.42;;;;;;;18.97;90.21;101414.00;5020280;28;20083;-77
2023/06/21 04:22:49;;;;;;;2.30;2.10;;;;;;;18.96;90.46;101408.78;5020355;28;20356;-77
2023/06/21 04:25:16;;;;;;;2.40;2.30;;;;;;;18.94;90.43;101406.22;5020469;28;20033;-77
2023/06/21 04:27:45;;;;;;;2.33;2.22;;;;;;;18.92;90.54;101409.94;5021310;28;20041;-77
2023/06/21 04:30:10;;;;;;;;;;;;;;;18.89;90.48;101413.63;5021801;28;20252;-77
2023/06/21 04:32:44;;;;;;;2.45;2.10;;;;;;;18.89;90.91;101418.09;5017412;28;19976;-77
2023/06/21 04:35:10;;;;;;;2.33;2.13;;;;;;;18.88;90.62;101419.91;5001425;28;20273;-77
2023/06/21 04:37:37;;;;;;;2.20;1.77;;;;;;;18.88;90.66;101440.28;5001713;28;20032;-77
2023/06/21 04:40:03;;;;;;;1.90;1.80;;;;;;;18.86;90.75;101435.06;4985090;28;20105;-77
2023/06/21 04:42:28;;;;;;;2.00;1.83;;;;;;;18.85;90.89;101436.03;5002557;28;20037;-77
2023/06/21 04:44:54;;;;;;;2.60;2.30;;;;;;;18.83;90.97;101437.06;5001719;28;20030;-77
2023/06/21 04:47:20;;;;;;;2.85;2.13;;;;;;;18.83;90.78;101439.72;5001948;28;20062;-77
2023/06/21 04:49:45;;;;;;;2.58;1.70;;;;;;;18.83;91.00;101431.75;4984905;28;20030;-77
2023/06/21 04:52:12;;;;;;;1.73;1.63;;;;;;;18.82;90.78;101436.22;5001789;28;20060;-77
2023/06/21 04:54:38;;;;;;;2.85;2.38;;;;;;;18.82;90.65;101432.72;5002767;28;20030;-77
2023/06/21 04:57:12;;;;;;;2.53;1.70;;;;;;;18.83;90.54;101437.06;5002292;28;20064;-77
2023/06/21 04:59:37;;;;;;;1.92;1.77;;;;;;;18.80;90.55;101432.78;4984733;28;20380;-77
2023/06/21 05:02:04;;;;;;;1.60;1.50;;;;;;;18.80;90.28;101446.91;4985446;28;20030;-77
2023/06/21 05:04:30;;;;;;;3.63;1.80;;;;;;;18.77;90.38;101446.25;5003179;28;20120;-77
2023/06/21 05:06:56;;;;;;;3.60;1.70;;;;;;;18.77;90.07;101452.44;4984374;28;20018;-77
2023/06/21 05:09:21;;;;;;;3.35;1.60;;;;;;;18.77;90.20;101452.44;5002705;28;20044;-77
2023/06/21 05:11:47;;;;;;;1.58;1.48;;;;;;;18.75;90.02;101464.91;5001797;28;20270;-77
2023/06/21 05:14:12;;;;;;;3.13;1.33;;;;;;;18.73;89.90;101466.81;4985129;28;20026;-77
2023/06/21 05:16:40;;;;;;;1.70;1.58;;;;;;;18.70;89.93;101460.88;5001921;28;20038;-77
2023/06/21 05:19:05;;;;;;;2.03;1.50;;;;;;;18.70;89.96;101460.88;4983388;28;20077;-77
2023/06/21 05:21:31;;;;;;;4.43;1.65;;;;;;;18.69;90.06;101459.19;4984980;28;20313;-77
2023/06/21 05:23:56;;;;;;;3.15;1.50;;;;;;;18.67;89.92;101467.25;5011521;28;20034;-77
2023/06/21 05:26:21;;;;;;;2.50;1.98;;;;;;;18.66;89.83;101470.00;5002976;28;20101;-77
2023/06/21 05:28:47;;;;;;;3.53;1.80;;;;;;;18.64;90.02;101470.09;5002935;28;20029;-77
2023/06/21 05:31:13;;;;;;;1.85;1.52;;;;;;;18.64;90.19;101467.44;5011360;28;20038;-77
2023/06/21 05:33:38;;;;;;;3.13;1.63;;;;;;;18.66;90.20;101476.13;5000457;28;20042;-77
2023/06/21 05:36:04;;;;;;;3.72;1.88;;;;;;;18.66;90.21;101470.00;4983987;28;20124;-77
2023/06/21 05:38:29;;;;;;;1.70;1.60;;;;;;;18.67;90.38;101472.53;4983579;28;20072;-77
2023/06/21 05:40:55;;;;;;;2.60;1.73;;;;;;;18.67;90.30;101477.00;4997346;28;20352;-77
2023/06/21 05:43:20;;;;;;;7.18;2.22;;;;;;;18.68;90.17;101478.69;4971821;28;20033;-77
2023/06/21 05:45:45;;;;;;;3.58;1.80;;;;;;;18.69;90.24;101477.75;4975655;28;20031;-77
2023/06/21 05:48:13;;;;;;;5.90;1.80;;;;;;;18.69;90.46;101483.91;4964981;28;20038;-77
2023/06/21 05:50:39;;;;;;;7.47;2.27;;;;;;;18.69;90.01;101481.25;4983499;28;20041;-77
2023/06/21 05:53:04;;;;;;;2.78;1.90;;;;;;;18.71;89.92;101486.47;5001138;28;20289;-77
2023/06/21 05:55:29;;;;;;;3.20;1.63;;;;;;;18.73;90.01;101492.50;4984042;28;20026;-77
2023/06/21 05:57:55;;;;;;;2.13;1.52;;;;;;;18.73;89.81;101495.16;5001994;28;20042;-77
2023/06/21 06:00:21;;;;;;;1.70;1.35;;;;;;;18.72;89.50;101499.63;4980292;28;20022;-77
2023/06/21 06:02:46;;;;;;;2.45;1.40;;;;;;;18.69;89.49;101494.50;4993261;28;20042;-77
2023/06/21 06:05:11;;;;;;;1.25;1.10;;;;;;;18.66;89.47;101497.34;4973705;28;20034;-77
2023/06/21 06:07:37;;;;;;;2.20;1.25;;;;;;;18.69;89.63;101512.25;4989947;28;20045;-78
2023/06/21 06:10:04;;;;;;;5.05;1.80;;;;;;;18.69;89.50;101504.28;4983676;28;20043;-77
2023/06/21 06:12:30;;;;;;;1.70;1.30;;;;;;;18.69;89.29;101513.09;4983431;28;20045;-77
2023/06/21 06:14:55;;;;;;;4.22;1.55;;;;;;;18.70;89.54;101524.53;4990931;28;20038;-77
2023/06/21 06:17:21;;;;;;;3.42;1.30;;;;;;;18.69;89.39;101522.84;4983017;28;20333;-77
2023/06/21 06:19:46;;;;;;;1.63;1.52;;;;;;;18.69;89.40;101529.00;4982735;28;20134;-77
2023/06/21 06:22:12;;;;;;;1.45;1.10;;;;;;;18.70;89.38;101529.84;4994021;28;20039;-77
2023/06/21 06:24:37;;;;;;;2.45;1.63;;;;;;;18.72;89.16;101525.28;4995444;28;20041;-80
2023/06/21 06:27:03;;;;;;;2.55;1.23;;;;;;;18.72;88.82;101525.28;4993088;28;20076;-80
2023/06/21 06:29:31;;;;;;;2.35;1.48;;;;;;;18.73;88.79;101530.50;4987061;28;20034;-80
2023/06/21 06:31:56;;;;;;;2.65;1.23;;;;;;;18.72;88.55;101531.47;4989736;28;20035;-79
2023/06/21 06:34:22;;;;;;;2.35;1.30;;;;;;;18.72;88.61;101539.44;4997860;28;20121;-80
2023/06/21 06:36:48;;;;;;;2.22;1.23;;;;;;;18.73;88.77;101548.22;4987135;28;20388;-79
2023/06/21 06:39:13;;;;;;;1.30;1.20;;;;;;;18.72;88.66;101544.72;4993939;28;20030;-79
2023/06/21 06:41:39;;;;;;;2.42;1.10;;;;;;;18.74;88.60;101552.59;4991936;28;20022;-80
2023/06/21 06:44:05;;;;;;;1.30;1.10;;;;;;;18.74;88.47;101553.44;4991686;28;20035;-80
2023/06/21 06:46:30;;;;;;;1.08;0.98;;;;;;;18.74;88.36;101548.13;4996698;28;20262;-80
2023/06/21 06:48:56;;;;;;;1.25;1.10;;;;;;;18.75;88.50;101554.28;4995832;28;20046;-79
2023/06/21 06:51:21;;;;;;;1.98;1.33;;;;;;;18.77;88.57;101563.00;4993343;28;20582;-80
2023/06/21 06:53:48;;;;;;;3.70;1.55;;;;;;;18.78;88.56;101557.59;4992289;28;20267;-80
2023/06/21 06:56:13;;;;;;;2.67;1.27;;;;;;;18.79;88.32;101559.31;4999436;28;20044;-80
2023/06/21 06:58:39;;;;;;;2.55;1.55;;;;;;;18.79;88.23;101555.78;4987994;28;20034;-80
2023/06/21 07:01:05;;;;;;;1.70;1.55;;;;;;;18.81;88.20;101569.88;4993511;28;20040;-80
2023/06/21 07:03:34;;;;;;;1.40;1.30;;;;;;;18.81;88.08;101569.88;4998216;28;20289;-80
2023/06/21 07:05:59;;;;;;;1.52;1.05;;;;;;;18.83;88.19;101580.34;4989802;28;20050;-79
2023/06/21 07:08:25;;;;;;;3.05;1.40;;;;;;;18.84;87.98;101580.25;4992899;28;20043;-79
2023/06/21 07:10:50;;;;;;;1.88;0.98;;;;;;;18.85;88.25;101581.13;4993516;28;20217;-79
2023/06/21 07:13:17;;;;;;;1.48;1.00;;;;;;;18.86;88.13;101580.16;4980578;28;20085;-79
2023/06/21 07:15:43;;;;;;;1.08;1.08;;;;;;;18.88;88.19;101591.53;5007172;28;20034;-80
2023/06/21 07:18:08;;;;;;;1.25;0.80;;;;;;;18.87;87.98;101588.03;4991576;28;20065;-80
2023/06/21 07:20:34;;;;;;;3.35;1.38;;;;;;;18.88;87.98;101589.75;4991624;28;20022;-80
2023/06/21 07:23:00;;;;;;;2.08;0.90;;;;;;;18.90;88.04;101592.28;4990883;28;20038;-80
2023/06/21 07:25:25;;;;;;;1.35;1.00;;;;;;;18.91;87.97;101594.84;4992175;28;20041;-79
2023/06/21 07:27:51;;;;;;;1.38;0.90;;;;;;;18.93;88.06;101595.59;4994978;28;20042;-80
2023/06/21 07:30:17;;;;;;;1.20;1.10;;;;;;;18.95;87.80;101592.84;4997110;28;20201;-80
2023/06/21 07:32:43;;;;;;;1.00;0.77;;;;;;;18.96;87.66;101586.59;5003982;28;20034;-80
2023/06/21 07:35:08;;;;;;;1.60;1.25;;;;;;;18.97;87.43;101594.47;4976243;28;20041;-80
2023/06/21 07:37:34;;;;;;;1.35;1.00;;;;;;;19.01;87.68;101596.91;4993825;28;20054;-80
2023/06/21 07:40:00;;;;;;;1.65;0.90;;;;;;;19.03;87.71;101601.19;4991868;28;20081;-80
2023/06/21 07:42:26;;;;;;;1.05;1.00;;;;;;;19.06;87.87;101600.13;4988528;28;20026;-80
2023/06/21 07:44:52;;;;;;;1.55;1.10;;;;;;;19.08;87.99;101608.84;4996907;28;20041;-80
2023/06/21 07:47:18;;;;;;;1.33;0.88;;;;;;;19.09;87.84;101602.59;4991817;28;20069;-80
2023/06/21 07:49:43;;;;;;;2.38;0.90;;;;;;;19.10;87.72;101602.50;5004679;28;20046;-80
2023/06/21 07:52:10;;;;;;;1.60;1.27;;;;;;;19.12;87.66;101610.38;5003654;28;20038;-80
2023/06/21 07:54:36;;;;;;;1.00;0.90;;;;;;;19.15;87.68;101607.50;4999863;28;20038;-80
2023/06/21 07:57:02;;;;;;;2.15;1.20;;;;;;;19.16;87.48;101606.56;5002521;28;20030;-80
2023/06/21 07:59:27;;;;;;;2.20;1.30;;;;;;;19.17;87.26;101614.44;5003742;28;20046;-80
2023/06/21 08:01:52;;;;;;;1.60;0.95;;;;;;;19.20;87.26;101617.84;5007876;28;20459;-80
2023/06/21 08:04:18;;;;;;;6.60;1.70;;;;;;;19.19;87.55;101614.31;5001375;28;20042;-80
2023/06/21 08:06:43;;;;;;;2.55;1.10;;;;;;;19.23;87.49;101614.97;4981348;28;20037;-80
2023/06/21 08:09:08;;;;;;;4.72;1.77;;;;;;;19.26;87.68;101622.72;5001175;28;20396;-80
2023/06/21 08:11:34;;;;;;;2.65;1.52;;;;;;;19.28;87.72;101626.13;5001029;28;20034;-80
2023/06/21 08:13:59;;;;;;;1.30;1.20;;;;;;;19.30;87.75;101629.53;4994404;28;20057;-79
2023/06/21 08:16:25;;;;;;;1.85;1.20;;;;;;;19.31;87.15;101624.13;4985160;28;20033;-79
2023/06/21 08:18:50;;;;;;;1.88;1.30;;;;;;;19.33;86.97;101632.84;5005031;28;20034;-79
2023/06/21 08:21:15;;;;;;;3.42;1.92;;;;;;;19.36;87.01;101630.00;5019247;28;20229;-80
2023/06/21 08:23:41;;;;;;;1.90;1.67;;;;;;;19.40;87.05;101640.44;4993029;28;20049;-80
2023/06/21 08:26:06;;;;;;;6.03;1.92;;;;;;;19.41;86.90;101640.34;5009217;28;20105;-80
2023/06/21 08:28:32;;;;;;;1.58;1.48;;;;;;;19.44;86.78;101628.66;5009210;28;20340;-79
2023/06/21 08:30:57;;;;;;;2.47;1.83;;;;;;;19.45;86.85;101628.56;5003559;28;20032;-79
2023/06/21 08:33:22;;;;;;;1.60;1.50;;;;;;;19.46;86.90;101640.88;4993798;28;20053;-79
2023/06/21 08:35:48;;;;;;;2.08;1.38;;;;;;;19.48;87.03;101648.75;4990981;28;20034;-79
2023/06/21 08:38:13;;;;;;;1.58;1.20;;;;;;;19.49;86.57;101640.66;5004220;28;20038;-79
2023/06/21 08:40:42;;;;;;;5.15;1.98;;;;;;;19.50;86.34;101647.69;4986685;28;20265;-80
2023/06/21 08:43:08;;;;;;;2.15;1.80;;;;;;;19.52;86.30;101642.28;4986866;28;20034;-79
2023/06/21 08:45:33;;;;;;;1.55;1.20;;;;;;;19.55;86.40;101644.72;5003423;28;20037;-79
2023/06/21 08:48:03;;;;;;;1.33;1.23;;;;;;;19.56;86.05;101644.63;5007111;28;20237;-79
2023/06/21 08:50:29;;;;;;;1.42;1.05;;;;;;;19.58;85.82;101662.28;4997063;28;20038;-79
2023/06/21 08:52:59;;;;;;;1.73;1.15;;;;;;;19.60;85.54;101658.56;4987531;28;20042;-80
2023/06/21 08:55:27;;;;;;;2.55;1.25;;;;;;;19.63;85.46;101662.81;5007184;28;20050;-79
2023/06/21 08:58:00;;;;;;;3.38;2.55;;;;;;;19.65;85.29;101664.44;4998194;28;20042;-79
2023/06/21 09:00:33;;;;;;;1.75;1.60;;;;;;;19.68;85.34;101666.91;5005700;28;20030;-79
2023/06/21 09:03:13;;;;;;;2.75;1.70;;;;;;;19.70;85.41;101665.00;5006819;28;20042;-79
2023/06/21 09:06:04;;;;;;;3.03;1.80;;;;;;;19.74;85.45;101671.81;5000575;28;20054;-79
2023/06/21 09:08:32;;;;;;;4.32;2.22;;;;;;;19.75;85.70;101673.53;4998902;28;20037;-79
2023/06/21 09:10:58;;;;;;;4.30;2.20;;;;;;;19.79;85.53;101676.81;4996628;28;20038;-79
2023/06/21 09:13:27;;;;;;;3.67;2.50;;;;;;;19.82;85.60;101668.66;4996618;28;20177;-80
2023/06/21 09:15:55;;;;;;;3.78;2.00;;;;;;;19.84;85.75;101671.22;4993309;28;20904;-80
2023/06/21 09:18:22;;;;;;;5.47;2.42;;;;;;;19.87;85.42;101665.72;4994318;28;20376;-79
2023/06/21 09:20:49;;;;;;;5.53;3.13;;;;;;;19.91;85.88;101662.72;5001801;28;20034;-79
2023/06/21 09:23:15;;;;;;;2.63;2.00;;;;;;;19.92;85.42;101667.09;4982317;28;20073;-79
2023/06/21 09:25:42;;;;;;;9.48;2.90;;;;;;;19.94;85.78;101665.19;4976223;28;20030;-79
2023/06/21 09:28:07;;;;;;;6.25;2.92;;;;;;;19.98;85.59;101672.97;4992937;28;20053;-79
2023/06/21 09:30:33;;;;;;;3.25;2.65;;;;;;;20.00;85.62;101666.56;4995363;28;20038;-79
2023/06/21 09:32:59;;;;;;;4.90;2.70;;;;;;;20.02;85.40;101669.13;4996408;28;20034;-79
2023/06/21 09:35:24;;;;;;;3.92;2.50;;;;;;;20.05;85.39;101668.94;4979528;28;20114;-79
2023/06/21 09:37:50;;;;;;;7.38;3.05;;;;;;;20.08;85.63;101666.91;5005162;28;20053;-79
2023/06/21 09:40:15;;;;;;;4.60;2.42;;;;;;;20.10;85.53;101669.44;5010850;28;20106;-79
2023/06/21 09:42:43;;;;;;;4.07;2.63;;;;;;;20.12;85.25;101665.75;4997462;28;20025;-79
2023/06/21 09:45:10;;;;;;;2.28;1.95;;;;;;;20.16;85.39;101677.03;5012756;28;20038;-79
2023/06/21 09:47:35;;;;;;;2.55;2.15;;;;;;;20.18;84.95;101677.78;4999595;28;20033;-79
2023/06/21 09:50:04;;;;;;;2.38;1.50;;;;;;;20.21;84.74;101680.22;5001881;28;20037;-79
2023/06/21 09:52:30;;;;;;;2.92;2.08;;;;;;;20.21;83.86;101677.56;5004773;28;20034;-79
2023/06/21 09:54:58;;;;;;;1.65;1.55;;;;;;;20.22;83.69;101681.91;5002141;28;20101;-79
2023/06/21 09:57:31;;;;;;;1.67;1.58;;;;;;;20.24;83.23;101682.66;4984959;28;20050;-79
2023/06/21 10:00:00;;;;;;;5.32;1.85;;;;;;;20.26;82.51;101693.19;4997657;28;20069;-79
2023/06/21 10:02:27;;;;;;;1.80;1.70;;;;;;;20.27;82.05;101695.75;5002559;28;20033;-79
2023/06/21 10:04:56;;;;;;;1.70;1.42;;;;;;;20.30;82.26;101692.91;5004542;28;20303;-79
2023/06/21 10:07:22;;;;;;;1.30;1.30;;;;;;;20.32;81.99;101701.63;4998879;28;20086;-79
2023/06/21 10:09:48;;;;;;;3.85;1.95;;;;;;;20.33;80.96;101705.97;4991836;28;20204;-79
2023/06/21 10:12:14;;;;;;;3.22;1.23;;;;;;;20.35;81.21;101697.88;5002648;28;20042;-79
2023/06/21 10:14:41;;;;;;;2.55;1.60;;;;;;;20.37;80.96;101698.63;4995863;28;20034;-79
2023/06/21 10:17:07;;;;;;;1.65;1.27;;;;;;;20.37;80.38;101709.28;5002735;28;20061;-79
2023/06/21 10:19:33;;;;;;;2.67;1.80;;;;;;;20.39;80.64;101706.50;5004892;28;20037;-79
2023/06/21 10:22:04;;;;;;;4.88;2.25;;;;;;;20.41;80.44;101704.59;5009799;28;20034;-79
2023/06/21 10:24:36;;;;;;;1.50;1.40;;;;;;;20.41;80.53;101710.78;5001005;28;20049;-79
2023/06/21 10:27:06;;;;;;;1.48;1.35;;;;;;;20.43;80.22;101711.53;5001528;28;20214;-79
2023/06/21 10:29:33;;;;;;;1.85;1.75;;;;;;;20.46;80.25;101705.13;4994662;28;20034;-79
2023/06/21 10:32:05;;;;;;;6.97;2.13;;;;;;;20.46;79.54;101702.47;5004468;28;20034;-79
2023/06/21 10:34:43;;;;;;;3.00;2.13;;;;;;;20.49;79.01;101707.59;5000684;28;20037;-79
2023/06/21 10:37:17;;;;;;;8.68;2.42;;;;;;;20.50;78.98;101706.63;4979938;28;20093;-79
2023/06/21 10:39:48;;;;;;;5.20;2.15;;;;;;;20.52;79.08;101713.56;4983010;28;20046;-79
2023/06/21 10:42:13;;;;;;;1.95;1.80;;;;;;;20.57;79.18;101709.72;4999554;28;20198;-79
2023/06/21 10:44:40;;;;;;;1.95;1.75;;;;;;;20.59;78.44;101713.13;5000870;28;20064;-79
2023/06/21 10:47:05;;;;;;;4.93;2.53;;;;;;;20.62;78.93;101712.94;4975792;28;20045;-79
2023/06/21 10:49:31;;;;;;;4.72;1.90;;;;;;;20.63;78.75;101719.97;5005504;28;20241;-79
2023/06/21 10:51:57;;;;;;;3.15;1.60;;;;;;;20.65;78.89;101728.72;5006247;28;20051;-79
2023/06/21 10:54:25;;;;;;;7.07;2.67;;;;;;;20.67;78.92;101732.97;5003490;28;20198;-79
2023/06/21 10:56:52;;;;;;;2.97;2.50;;;;;;;20.69;78.91;101739.03;5007612;28;20360;-78
2023/06/21 10:59:19;;;;;;;2.95;2.70;;;;;;;20.73;79.04;101738.81;4973971;28;20041;-79
2023/06/21 11:01:44;;;;;;;2.72;2.40;;;;;;;20.75;79.32;101740.41;5001283;28;20042;-79
2023/06/21 11:04:09;;;;;;;7.03;3.75;;;;;;;20.77;80.11;101748.28;4984635;28;20427;-78
2023/06/21 11:06:37;;;;;;;5.60;3.90;;;;;;;20.79;80.51;101752.56;4997571;28;20085;-79
2023/06/21 11:09:22;;;;;;;7.73;3.83;;;;;;;20.84;81.10;101753.06;4982733;28;20030;-79
2023/06/21 11:11:50;;;;;;;5.20;3.72;;;;;;;20.86;81.43;101759.13;4995215;28;20038;-79
2023/06/21 11:14:21;;;;;;;6.47;4.10;;;;;;;20.89;81.36;101763.41;4993656;28;20034;-79
2023/06/21 11:16:46;;;;;;;6.70;4.60;;;;;;;20.91;82.22;101764.16;4978372;28;20037;-78
2023/06/21 11:19:15;;;;;;;4.97;3.70;;;;;;;20.93;81.64;101770.22;4992055;28;20471;-78
2023/06/21 11:21:45;;;;;;;5.40;4.63;;;;;;;20.95;81.93;101781.59;4996550;28;20058;-78
2023/06/21 11:24:15;;;;;;;6.95;3.78;;;;;;;20.97;81.81;101781.50;4995964;28;20042;-78